Terminal Aerodrome Forecast
Issued by NWS

Home | Current Version | Previous Version | Text Only | Print | Product List | Glossary On
Versions: 1 2 3 4 5 6 7 8 9 10 11 12 13 14 15 16 17 18
000
FTUS45 KSLC 261922 AAA
TAFBCE
TAF AMD
KBCE 261922Z 2619/2718 30012KT P6SM VCTS SCT040CB BKN080
      TEMPO 2619/2620 VRB15G25KT 5SM TSRA BKN040CB
     FM262200 31011G18KT P6SM VCSH SCT050 BKN080
     FM270200 29007KT P6SM FEW050 SCT080=

USA.gov is the U.S. government's official web portal to all federal, state and local government web resources and services.